Time;durP1;ratioP1;P1;durP2;ratioP2;P2;SDS_P1;SDS_P2;PMS_P1;PMS_P2;Temp;Humidity;BMP_temperature;BMP_pressure;BME280_temperature;BME280_humidity;BME280_pressure;Samples;Min_cycle;Max_cycle;Signal;HPM_P1;HPM_P2
2022/03/25 00:01:57;;;;;;;132.80;47.90;;;;;;;;;;4996561;28;20086;-83
2022/03/25 00:04:23;;;;;;;134.65;51.15;;;;;;;;;;4986845;28;20049;-83
2022/03/25 00:06:49;;;;;;;133.68;49.15;;;;;;;;;;5001112;28;20022;-83
2022/03/25 00:09:15;;;;;;;133.55;47.65;;;;;;;;;;4984395;28;20871;-83
2022/03/25 00:11:42;;;;;;;130.73;47.78;;;;;;;;;;4995063;28;20389;-83
2022/03/25 00:14:09;;;;;;;120.80;47.95;;;;;;;;;;4986637;28;20046;-83
2022/03/25 00:16:35;;;;;;;127.50;47.92;;;;;;;;;;4985409;28;20038;-83
2022/03/25 00:19:03;;;;;;;126.05;46.72;;;;;;;;;;4990876;28;20025;-83
2022/03/25 00:21:29;;;;;;;119.35;45.67;;;;;;;;;;5002840;28;20081;-83
2022/03/25 00:23:55;;;;;;;122.57;47.35;;;;;;;;;;5007001;28;20450;-83
2022/03/25 00:26:21;;;;;;;117.38;44.67;;;;;;;;;;4986853;28;20247;-83
2022/03/25 00:28:48;;;;;;;122.70;46.03;;;;;;;;;;5000162;28;20038;-83
2022/03/25 00:31:14;;;;;;;125.80;46.08;;;;;;;;;;4984833;28;20398;-83
2022/03/25 00:33:42;;;;;;;111.03;44.78;;;;;;;;;;4983123;28;20033;-83
2022/03/25 00:36:10;;;;;;;124.15;45.38;;;;;;;;;;4993693;28;20041;-82
2022/03/25 00:38:36;;;;;;;118.15;46.47;;;;;;;;;;4983272;28;20065;-83
2022/03/25 00:41:02;;;;;;;110.55;44.13;;;;;;;;;;5001987;28;20393;-83
2022/03/25 00:43:28;;;;;;;120.97;44.88;;;;;;;;;;4997691;28;20402;-83
2022/03/25 00:45:54;;;;;;;116.15;44.72;;;;;;;;;;4985316;28;20050;-83
2022/03/25 00:48:20;;;;;;;127.05;46.70;;;;;;;;;;5001858;28;20044;-83
2022/03/25 00:50:46;;;;;;;120.15;45.17;;;;;;;;;;4983272;28;20038;-83
2022/03/25 00:53:12;;;;;;;114.57;44.08;;;;;;;;;;5002833;28;20032;-83
2022/03/25 00:55:38;;;;;;;108.53;43.85;;;;;;;;;;5000162;28;20299;-83
2022/03/25 00:58:04;;;;;;;111.38;44.10;;;;;;;;;;4986184;28;20705;-83
2022/03/25 01:00:30;;;;;;;112.28;44.10;;;;;;;;;;5004498;28;20106;-83
2022/03/25 01:02:57;;;;;;;114.13;44.35;;;;;;;;;;4984296;28;20552;-82
2022/03/25 01:05:23;;;;;;;112.47;43.30;;;;;;;;;;4999149;28;20026;-83
2022/03/25 01:07:49;;;;;;;112.13;42.53;;;;;;;;;;4994987;28;20034;-83
2022/03/25 01:10:15;;;;;;;108.78;43.10;;;;;;;;;;5002516;28;20030;-83
2022/03/25 01:12:41;;;;;;;115.25;43.17;;;;;;;;;;4983070;28;20057;-84
2022/03/25 01:15:07;;;;;;;110.85;41.47;;;;;;;;;;4992895;28;20040;-84
2022/03/25 01:17:33;;;;;;;106.68;41.72;;;;;;;;;;4985390;28;20041;-83
2022/03/25 01:19:59;;;;;;;105.50;41.13;;;;;;;;;;4982659;28;20038;-83
2022/03/25 01:22:25;;;;;;;100.63;40.55;;;;;;;;;;4999256;28;20033;-83
2022/03/25 01:24:51;;;;;;;102.50;41.80;;;;;;;;;;4984230;28;20576;-83
2022/03/25 01:27:17;;;;;;;106.88;37.83;;;;;;;;;;4983015;28;20434;-83
2022/03/25 01:29:43;;;;;;;107.07;40.03;;;;;;;;;;4984995;28;20141;-83
2022/03/25 01:32:10;;;;;;;109.82;40.05;;;;;;;;;;4998419;28;20161;-82
2022/03/25 01:34:37;;;;;;;106.38;41.97;;;;;;;;;;4988269;28;20052;-82
2022/03/25 01:37:03;;;;;;;113.95;42.05;;;;;;;;;;4983238;28;20080;-83
2022/03/25 01:39:29;;;;;;;110.03;38.95;;;;;;;;;;4999751;28;20022;-83
2022/03/25 01:42:02;;;;;;;116.00;40.15;;;;;;;;;;4984413;28;20623;-83
2022/03/25 01:44:29;;;;;;;107.75;40.55;;;;;;;;;;4987035;28;20324;-83
2022/03/25 01:46:56;;;;;;;103.57;37.10;;;;;;;;;;5004832;28;20507;-83
2022/03/25 01:49:23;;;;;;;106.63;39.50;;;;;;;;;;5002873;28;20098;-83
2022/03/25 01:51:53;;;;;;;98.05;37.17;;;;;;;;;;4986308;28;20433;-83
2022/03/25 01:54:30;;;;;;;99.30;40.53;;;;;;;;;;4986267;28;20033;-83
2022/03/25 01:57:01;;;;;;;106.90;40.05;;;;;;;;;;5005248;28;20049;-83
2022/03/25 01:59:27;;;;;;;98.03;38.67;;;;;;;;;;4992521;28;20033;-83
2022/03/25 02:01:54;;;;;;;99.13;37.63;;;;;;;;;;5011470;28;20020;-83
2022/03/25 02:04:21;;;;;;;101.00;39.30;;;;;;;;;;4986935;28;20061;-83
2022/03/25 02:06:47;;;;;;;109.28;40.22;;;;;;;;;;4993165;28;20033;-83
2022/03/25 02:09:14;;;;;;;108.22;38.47;;;;;;;;;;5006848;28;20177;-83
2022/03/25 02:11:40;;;;;;;97.00;36.20;;;;;;;;;;4990534;28;20061;-83
2022/03/25 02:14:13;;;;;;;104.88;39.65;;;;;;;;;;5006057;28;20041;-83
2022/03/25 02:16:40;;;;;;;98.80;37.50;;;;;;;;;;4990155;28;20034;-83
2022/03/25 02:19:08;;;;;;;105.60;36.28;;;;;;;;;;5005593;28;20025;-83
2022/03/25 02:21:36;;;;;;;91.25;36.20;;;;;;;;;;5005498;28;20023;-83
2022/03/25 02:24:03;;;;;;;96.45;37.53;;;;;;;;;;4989223;28;20030;-84
2022/03/25 02:26:29;;;;;;;103.97;36.65;;;;;;;;;;4987599;28;20073;-83
2022/03/25 02:28:56;;;;;;;95.15;35.80;;;;;;;;;;5006090;28;20097;-83
2022/03/25 02:31:22;;;;;;;97.10;36.50;;;;;;;;;;5009348;28;20049;-82
2022/03/25 02:33:49;;;;;;;101.68;37.28;;;;;;;;;;4987659;28;20040;-83
2022/03/25 02:36:15;;;;;;;89.10;34.97;;;;;;;;;;5002353;28;20477;-83
2022/03/25 02:38:41;;;;;;;100.35;37.78;;;;;;;;;;5005081;28;21336;-83
2022/03/25 02:41:07;;;;;;;97.75;35.30;;;;;;;;;;5005496;28;20040;-83
2022/03/25 02:43:33;;;;;;;97.63;37.45;;;;;;;;;;5003796;28;20053;-83
2022/03/25 02:45:59;;;;;;;101.22;36.08;;;;;;;;;;5004141;28;20034;-82
2022/03/25 02:48:25;;;;;;;93.07;36.33;;;;;;;;;;4991613;28;20084;-83
2022/03/25 02:50:51;;;;;;;101.93;36.80;;;;;;;;;;5008294;28;20057;-83
2022/03/25 02:53:17;;;;;;;101.03;37.15;;;;;;;;;;4986925;28;20029;-83
2022/03/25 02:55:43;;;;;;;93.88;35.53;;;;;;;;;;4991098;28;20064;-83
2022/03/25 02:58:11;;;;;;;91.93;33.47;;;;;;;;;;4994355;28;20037;-83
2022/03/25 03:00:37;;;;;;;97.43;36.65;;;;;;;;;;5005584;28;20088;-83
2022/03/25 03:03:03;;;;;;;97.70;35.65;;;;;;;;;;5005799;28;23202;-83
2022/03/25 03:05:31;;;;;;;97.00;34.60;;;;;;;;;;4989269;28;20085;-83
2022/03/25 03:07:57;;;;;;;88.20;33.38;;;;;;;;;;5008111;28;20573;-83
2022/03/25 03:10:24;;;;;;;93.30;35.33;;;;;;;;;;5000266;28;20553;-83
2022/03/25 03:12:50;;;;;;;95.43;35.72;;;;;;;;;;4985246;28;20034;-83
2022/03/25 03:15:17;;;;;;;101.28;36.72;;;;;;;;;;4987087;28;20038;-83
2022/03/25 03:17:44;;;;;;;100.13;37.78;;;;;;;;;;4989106;28;20129;-82
2022/03/25 03:20:10;;;;;;;94.60;36.08;;;;;;;;;;4990844;28;20489;-83
2022/03/25 03:22:36;;;;;;;103.38;34.95;;;;;;;;;;4987397;28;20053;-83
2022/03/25 03:25:10;;;;;;;102.30;36.20;;;;;;;;;;5008090;28;20180;-84
2022/03/25 03:27:44;;;;;;;93.70;34.97;;;;;;;;;;4989782;28;20115;-83
2022/03/25 03:30:11;;;;;;;92.30;36.03;;;;;;;;;;5004389;28;20034;-83
2022/03/25 03:32:38;;;;;;;97.43;36.08;;;;;;;;;;5004184;28;20026;-83
2022/03/25 03:35:05;;;;;;;86.10;35.88;;;;;;;;;;4987847;28;20072;-83
2022/03/25 03:37:31;;;;;;;98.35;35.88;;;;;;;;;;4987338;28;20050;-83
2022/03/25 03:39:59;;;;;;;82.38;32.15;;;;;;;;;;4989883;28;20026;-83
2022/03/25 03:42:25;;;;;;;87.35;33.05;;;;;;;;;;4991964;28;20552;-83
2022/03/25 03:44:53;;;;;;;81.75;32.95;;;;;;;;;;4992072;28;20057;-83
2022/03/25 03:47:19;;;;;;;87.70;32.67;;;;;;;;;;4992944;28;20038;-83
2022/03/25 03:49:46;;;;;;;82.00;32.70;;;;;;;;;;4993292;28;20053;-83
2022/03/25 03:52:12;;;;;;;83.25;33.60;;;;;;;;;;5004987;28;20489;-83
2022/03/25 03:54:38;;;;;;;82.25;32.40;;;;;;;;;;4987921;28;20129;-83
2022/03/25 03:57:07;;;;;;;89.53;33.05;;;;;;;;;;4983802;28;20030;-83
2022/03/25 03:59:33;;;;;;;90.68;32.72;;;;;;;;;;4989216;28;20041;-83
2022/03/25 04:01:59;;;;;;;79.70;32.60;;;;;;;;;;4985402;28;20038;-83
2022/03/25 04:04:25;;;;;;;89.45;34.20;;;;;;;;;;5005751;28;20041;-83
2022/03/25 04:06:51;;;;;;;88.95;33.38;;;;;;;;;;4985183;28;20057;-83
2022/03/25 04:09:17;;;;;;;94.35;35.15;;;;;;;;;;4990323;28;20034;-83
2022/03/25 04:11:45;;;;;;;98.65;35.13;;;;;;;;;;4986061;28;20445;-83
2022/03/25 04:14:11;;;;;;;96.72;34.25;;;;;;;;;;4987362;28;20116;-83
2022/03/25 04:16:37;;;;;;;84.55;33.22;;;;;;;;;;5006451;28;20441;-83
2022/03/25 04:19:04;;;;;;;94.55;35.38;;;;;;;;;;5004427;28;20025;-83
2022/03/25 04:21:30;;;;;;;87.40;33.95;;;;;;;;;;4989145;28;20048;-83
2022/03/25 04:23:56;;;;;;;91.75;32.58;;;;;;;;;;5006550;28;20489;-83
2022/03/25 04:26:24;;;;;;;87.47;33.22;;;;;;;;;;4989018;28;20072;-83
2022/03/25 04:28:50;;;;;;;99.75;33.63;;;;;;;;;;4984190;28;20455;-83
2022/03/25 04:31:17;;;;;;;88.32;31.55;;;;;;;;;;5003711;28;20449;-83
2022/03/25 04:33:46;;;;;;;89.13;32.47;;;;;;;;;;4970915;28;20050;-83
2022/03/25 04:36:13;;;;;;;85.13;33.28;;;;;;;;;;4986265;28;20042;-83
2022/03/25 04:38:39;;;;;;;88.68;34.95;;;;;;;;;;4987552;28;20482;-83
2022/03/25 04:41:06;;;;;;;85.15;32.67;;;;;;;;;;5003643;28;20026;-83
2022/03/25 04:43:32;;;;;;;119.45;36.00;;;;;;;;;;5002878;28;20037;-83
2022/03/25 04:45:58;;;;;;;100.35;34.15;;;;;;;;;;4994698;28;20041;-83
2022/03/25 04:48:25;;;;;;;91.78;33.13;;;;;;;;;;4986789;28;20032;-83
2022/03/25 04:50:51;;;;;;;154.27;58.17;;;;;;;;;;4999859;28;20072;-83
2022/03/25 04:53:17;;;;;;;89.88;31.92;;;;;;;;;;4989907;28;20054;-83
2022/03/25 04:55:43;;;;;;;87.82;33.22;;;;;;;;;;5004136;28;20177;-83
2022/03/25 04:58:09;;;;;;;94.00;33.47;;;;;;;;;;4990491;28;20528;-83
2022/03/25 05:00:37;;;;;;;86.82;30.15;;;;;;;;;;5005417;28;20516;-83
2022/03/25 05:03:04;;;;;;;79.72;31.30;;;;;;;;;;4985685;28;20814;-82
2022/03/25 05:05:31;;;;;;;81.50;29.55;;;;;;;;;;4990968;28;20030;-83
2022/03/25 05:07:59;;;;;;;87.43;31.08;;;;;;;;;;5004622;28;20095;-83
2022/03/25 05:10:25;;;;;;;81.72;30.25;;;;;;;;;;5003110;28;20038;-83
2022/03/25 05:12:51;;;;;;;80.25;31.63;;;;;;;;;;4988575;28;20034;-83
2022/03/25 05:15:17;;;;;;;86.15;30.42;;;;;;;;;;4987654;28;20500;-83
2022/03/25 05:17:47;;;;;;;81.43;31.77;;;;;;;;;;4983900;28;20042;-83
2022/03/25 05:20:15;;;;;;;81.20;31.55;;;;;;;;;;4991752;28;20030;-83
2022/03/25 05:22:56;;;;;;;76.65;28.23;;;;;;;;;;4977156;28;20026;-83
2022/03/25 05:25:23;;;;;;;88.30;31.17;;;;;;;;;;5008060;28;20050;-83
2022/03/25 05:27:53;;;;;;;87.32;31.23;;;;;;;;;;4989174;28;20045;-83
2022/03/25 05:30:21;;;;;;;87.82;30.70;;;;;;;;;;5006222;28;20059;-83
2022/03/25 05:32:48;;;;;;;79.53;31.20;;;;;;;;;;4997505;28;20062;-83
2022/03/25 05:35:15;;;;;;;85.72;31.85;;;;;;;;;;5004697;28;20080;-83
2022/03/25 05:37:44;;;;;;;84.90;31.70;;;;;;;;;;5007223;28;20022;-83
2022/03/25 05:40:11;;;;;;;94.65;32.38;;;;;;;;;;5005343;28;20030;-82
2022/03/25 05:42:38;;;;;;;75.75;29.75;;;;;;;;;;4993035;28;20117;-83
2022/03/25 05:45:05;;;;;;;95.90;32.97;;;;;;;;;;5005296;28;20117;-83
2022/03/25 05:47:31;;;;;;;92.30;32.85;;;;;;;;;;4985328;28;20084;-83
2022/03/25 05:49:57;;;;;;;89.15;31.13;;;;;;;;;;4991892;28;20026;-83
2022/03/25 05:52:25;;;;;;;90.45;31.58;;;;;;;;;;5008527;28;20038;-83
2022/03/25 05:54:51;;;;;;;97.82;33.88;;;;;;;;;;4989781;28;20540;-83
2022/03/25 05:57:18;;;;;;;105.32;35.75;;;;;;;;;;4992569;28;20034;-82
2022/03/25 05:59:45;;;;;;;99.65;36.22;;;;;;;;;;5004844;28;20084;-83
2022/03/25 06:02:15;;;;;;;108.97;38.25;;;;;;;;;;5004493;28;20501;-83
2022/03/25 06:04:42;;;;;;;102.30;36.80;;;;;;;;;;4975240;28;20122;-82
2022/03/25 06:07:12;;;;;;;103.45;35.88;;;;;;;;;;5002064;28;20061;-83
2022/03/25 06:09:40;;;;;;;117.30;36.63;;;;;;;;;;4999810;28;20034;-82
2022/03/25 06:12:07;;;;;;;109.07;37.08;;;;;;;;;;4990534;28;20038;-83
2022/03/25 06:14:34;;;;;;;108.85;38.92;;;;;;;;;;5002615;28;20026;-83
2022/03/25 06:17:00;;;;;;;118.93;38.03;;;;;;;;;;5000602;28;20458;-83
2022/03/25 06:19:27;;;;;;;116.88;38.50;;;;;;;;;;5000164;28;20072;-83
2022/03/25 06:21:53;;;;;;;116.30;40.40;;;;;;;;;;4991534;28;20113;-82
2022/03/25 06:24:19;;;;;;;110.03;37.60;;;;;;;;;;4990940;28;20069;-83
2022/03/25 06:26:45;;;;;;;115.85;37.85;;;;;;;;;;5003737;28;20081;-83
2022/03/25 06:29:11;;;;;;;112.13;38.58;;;;;;;;;;4988605;28;20764;-83
2022/03/25 06:31:37;;;;;;;119.97;40.22;;;;;;;;;;4993581;28;20029;-83
2022/03/25 06:34:03;;;;;;;112.55;38.35;;;;;;;;;;4992580;28;20088;-83
2022/03/25 06:36:30;;;;;;;104.50;39.28;;;;;;;;;;4988042;28;20029;-83
2022/03/25 06:38:56;;;;;;;99.15;40.35;;;;;;;;;;4989089;28;20033;-83
2022/03/25 06:41:22;;;;;;;91.93;37.72;;;;;;;;;;5001079;28;20166;-83
2022/03/25 06:43:49;;;;;;;101.50;37.83;;;;;;;;;;4989182;28;20486;-83
2022/03/25 06:46:19;;;;;;;92.55;35.78;;;;;;;;;;5005025;28;20136;-83
2022/03/25 06:48:45;;;;;;;96.25;37.10;;;;;;;;;;4986211;28;20034;-83
2022/03/25 06:51:12;;;;;;;83.55;34.05;;;;;;;;;;4988817;28;20501;-83
2022/03/25 06:53:38;;;;;;;90.40;36.05;;;;;;;;;;4986419;28;20501;-83
2022/03/25 06:56:04;;;;;;;90.82;36.45;;;;;;;;;;5006350;28;20038;-82
2022/03/25 06:58:31;;;;;;;78.68;33.95;;;;;;;;;;5008198;28;20117;-83
2022/03/25 07:00:58;;;;;;;85.00;35.13;;;;;;;;;;5005100;28;20469;-83
2022/03/25 07:03:24;;;;;;;73.60;33.10;;;;;;;;;;5004770;28;20017;-83
2022/03/25 07:05:52;;;;;;;73.82;32.60;;;;;;;;;;5002991;28;20041;-83
2022/03/25 07:08:23;;;;;;;68.03;30.75;;;;;;;;;;4990811;28;20026;-83
2022/03/25 07:10:49;;;;;;;70.22;32.00;;;;;;;;;;4987120;28;20034;-83
2022/03/25 07:13:16;;;;;;;73.88;29.90;;;;;;;;;;5005332;28;20092;-82
2022/03/25 07:15:50;;;;;;;65.43;28.08;;;;;;;;;;4987053;28;20371;-83
2022/03/25 07:18:19;;;;;;;62.83;29.15;;;;;;;;;;5004055;28;20076;-83
2022/03/25 07:20:45;;;;;;;61.08;28.48;;;;;;;;;;5003061;28;20038;-83
2022/03/25 07:23:13;;;;;;;70.07;28.92;;;;;;;;;;4985498;28;20034;-83
2022/03/25 07:25:40;;;;;;;60.97;27.38;;;;;;;;;;5000259;28;20099;-83
2022/03/25 07:28:07;;;;;;;58.17;27.77;;;;;;;;;;4984203;28;20059;-83
2022/03/25 07:30:37;;;;;;;56.40;27.70;;;;;;;;;;4989138;28;20382;-83
2022/03/25 07:33:03;;;;;;;58.20;28.02;;;;;;;;;;4981532;28;20588;-83
2022/03/25 07:35:29;;;;;;;57.33;26.13;;;;;;;;;;4966068;28;20030;-84
2022/03/25 07:37:56;;;;;;;53.00;25.05;;;;;;;;;;4965768;28;20421;-83
2022/03/25 07:40:22;;;;;;;53.28;24.52;;;;;;;;;;4977480;28;20032;-83
2022/03/25 07:42:49;;;;;;;45.30;23.30;;;;;;;;;;4976961;28;20389;-83
2022/03/25 07:45:18;;;;;;;47.47;23.20;;;;;;;;;;4982651;28;20025;-83
2022/03/25 07:47:48;;;;;;;48.70;23.02;;;;;;;;;;4965679;28;20431;-84
2022/03/25 07:50:15;;;;;;;43.55;22.02;;;;;;;;;;4966178;28;20497;-83
2022/03/25 07:52:41;;;;;;;44.90;21.70;;;;;;;;;;4982750;28;20026;-83
2022/03/25 07:55:09;;;;;;;45.10;21.92;;;;;;;;;;4963609;28;20074;-83
2022/03/25 07:57:36;;;;;;;42.85;21.25;;;;;;;;;;4963148;28;20038;-83
2022/03/25 08:00:11;;;;;;;44.45;21.63;;;;;;;;;;4968753;28;20045;-83
2022/03/25 08:02:45;;;;;;;46.05;23.25;;;;;;;;;;4982494;28;20054;-83
2022/03/25 08:05:16;;;;;;;44.95;22.05;;;;;;;;;;4983361;28;20030;-83
2022/03/25 08:07:43;;;;;;;39.90;21.13;;;;;;;;;;4981483;28;20085;-83
2022/03/25 08:10:09;;;;;;;44.05;20.77;;;;;;;;;;4963747;28;20053;-83
2022/03/25 08:12:36;;;;;;;44.83;19.83;;;;;;;;;;4966926;28;20081;-83
2022/03/25 08:15:02;;;;;;;41.53;20.98;;;;;;;;;;4960721;28;20121;-83
2022/03/25 08:17:29;;;;;;;34.63;18.02;;;;;;;;;;4980939;28;20038;-83
2022/03/25 08:19:55;;;;;;;38.28;19.02;;;;;;;;;;4983708;28;20026;-81
2022/03/25 08:22:21;;;;;;;39.95;18.58;;;;;;;;;;4982120;28;20034;-81
2022/03/25 08:27:50;;;;;;;38.05;19.38;;;;;;;;;;5000118;28;20044;-81
2022/03/25 08:30:16;;;;;;;42.67;19.45;;;;;;;;;;4983552;28;20133;-81
2022/03/25 08:32:42;;;;;;;36.28;17.30;;;;;;;;;;5004039;28;20048;-81
2022/03/25 08:35:08;;;;;;;38.17;19.40;;;;;;;;;;4999687;28;20354;-80
2022/03/25 08:37:35;;;;;;;34.42;18.27;;;;;;;;;;4984935;28;20041;-81
2022/03/25 08:40:03;;;;;;;36.88;18.85;;;;;;;;;;4985627;28;20169;-81
2022/03/25 08:42:29;;;;;;;41.58;18.95;;;;;;;;;;4982786;28;20025;-81
2022/03/25 08:44:56;;;;;;;35.05;17.25;;;;;;;;;;5004019;28;20040;-81
2022/03/25 08:47:23;;;;;;;34.08;18.27;;;;;;;;;;5001141;28;20113;-81
2022/03/25 08:49:49;;;;;;;39.22;17.05;;;;;;;;;;4985260;28;20530;-81
2022/03/25 08:52:22;;;;;;;39.92;18.35;;;;;;;;;;4988088;28;20105;-81
2022/03/25 08:54:48;;;;;;;38.95;17.70;;;;;;;;;;4986708;28;20073;-81
2022/03/25 08:57:15;;;;;;;41.55;19.50;;;;;;;;;;5006548;28;20434;-83
2022/03/25 08:59:41;;;;;;;32.28;17.98;;;;;;;;;;4989994;28;20038;-82
2022/03/25 09:02:08;;;;;;;31.08;17.67;;;;;;;;;;4992077;28;20493;-82
2022/03/25 09:04:35;;;;;;;35.33;17.95;;;;;;;;;;4986198;28;20021;-82
2022/03/25 09:07:01;;;;;;;34.30;17.88;;;;;;;;;;5001127;28;20184;-83
2022/03/25 09:09:27;;;;;;;35.45;17.65;;;;;;;;;;4999808;28;20124;-83
2022/03/25 09:11:53;;;;;;;37.83;17.38;;;;;;;;;;5004835;28;20733;-82
2022/03/25 09:14:26;;;;;;;36.88;17.55;;;;;;;;;;4985841;28;20042;-82
2022/03/25 09:16:59;;;;;;;32.42;16.67;;;;;;;;;;4985034;28;20030;-82
2022/03/25 09:19:25;;;;;;;35.67;17.60;;;;;;;;;;5002920;28;20022;-83
2022/03/25 09:21:51;;;;;;;31.15;15.80;;;;;;;;;;4984165;28;20026;-83
2022/03/25 09:24:20;;;;;;;37.45;16.42;;;;;;;;;;4983841;28;20073;-82
2022/03/25 09:26:53;;;;;;;35.28;17.30;;;;;;;;;;4989552;28;20053;-83
2022/03/25 09:29:19;;;;;;;31.95;16.98;;;;;;;;;;4981762;28;20045;-83
2022/03/25 09:31:45;;;;;;;35.58;17.17;;;;;;;;;;4988467;28;20201;-82
2022/03/25 09:36:58;;;;;;;29.45;17.20;;;;;;;;;;5000681;28;20084;-82
2022/03/25 09:39:24;;;;;;;31.33;16.80;;;;;;;;;;4987356;28;20021;-81
2022/03/25 09:41:51;;;;;;;36.13;17.88;;;;;;;;;;4978516;28;20030;-82
2022/03/25 09:44:17;;;;;;;30.58;15.80;;;;;;;;;;4998633;28;20101;-82
2022/03/25 09:46:44;;;;;;;26.75;16.27;;;;;;;;;;4985831;28;20038;-82
2022/03/25 09:49:10;;;;;;;30.23;16.65;;;;;;;;;;5000052;28;20032;-83
2022/03/25 09:51:37;;;;;;;35.90;16.48;;;;;;;;;;4988412;28;20037;-81
2022/03/25 09:54:03;;;;;;;27.77;15.00;;;;;;;;;;5014517;28;20026;-82
2022/03/25 09:56:33;;;;;;;32.13;16.70;;;;;;;;;;5007124;28;20065;-82
2022/03/25 09:58:59;;;;;;;30.00;16.23;;;;;;;;;;5000393;28;20485;-82
2022/03/25 10:01:26;;;;;;;38.05;18.48;;;;;;;;;;5005919;28;20373;-82
2022/03/25 10:03:52;;;;;;;29.23;16.15;;;;;;;;;;4989503;28;20030;-81
2022/03/25 10:06:19;;;;;;;26.98;16.90;;;;;;;;;;5009018;28;20053;-82
2022/03/25 10:08:54;;;;;;;31.35;17.95;;;;;;;;;;5007180;28;20042;-81
2022/03/25 10:11:26;;;;;;;32.38;17.50;;;;;;;;;;4991758;28;20089;-82
2022/03/25 10:14:15;;;;;;;41.08;17.80;;;;;;;;;;5008820;28;20291;-81
2022/03/25 10:16:41;;;;;;;35.78;18.40;;;;;;;;;;4998156;28;20410;-81
2022/03/25 10:19:10;;;;;;;36.25;19.83;;;;;;;;;;5005094;28;20041;-81
2022/03/25 10:21:50;;;;;;;34.75;19.08;;;;;;;;;;5006370;28;20037;-82
2022/03/25 10:24:19;;;;;;;40.03;19.40;;;;;;;;;;4983202;28;20473;-82
2022/03/25 10:26:46;;;;;;;39.53;20.17;;;;;;;;;;4998094;28;20483;-82
2022/03/25 10:29:22;;;;;;;39.28;21.20;;;;;;;;;;5001151;28;20029;-82
2022/03/25 10:31:48;;;;;;;;;;;;;;;;;;4989945;28;20034;-81
2022/03/25 10:34:13;;;;;;;;;;;;;;;;;;4985566;28;20487;-81
2022/03/25 10:36:40;;;;;;;35.65;20.73;;;;;;;;;;4983368;28;19965;-82
2022/03/25 10:39:11;;;;;;;37.53;21.90;;;;;;;;;;4984387;28;20022;-81
2022/03/25 10:41:41;;;;;;;44.47;22.90;;;;;;;;;;4999384;28;20022;-82
2022/03/25 10:44:08;;;;;;;39.75;22.27;;;;;;;;;;4983315;28;20040;-82
2022/03/25 10:46:49;;;;;;;47.55;23.65;;;;;;;;;;4995978;28;20084;-82
2022/03/25 10:49:17;;;;;;;41.53;21.80;;;;;;;;;;5001786;28;20041;-81
2022/03/25 10:52:04;;;;;;;36.38;20.58;;;;;;;;;;4999438;28;20096;-82
2022/03/25 10:54:30;;;;;;;37.97;19.83;;;;;;;;;;4983127;28;20041;-82
2022/03/25 10:57:04;;;;;;;40.30;22.13;;;;;;;;;;4985376;28;20106;-82
2022/03/25 10:59:32;;;;;;;40.97;20.67;;;;;;;;;;4999101;28;20332;-82
2022/03/25 11:01:59;;;;;;;33.35;19.33;;;;;;;;;;4984251;28;20042;-82
2022/03/25 11:04:25;;;;;;;32.75;19.20;;;;;;;;;;5000832;28;20030;-82
2022/03/25 11:06:52;;;;;;;40.78;20.52;;;;;;;;;;5000663;28;20478;-82
2022/03/25 11:09:19;;;;;;;37.28;20.33;;;;;;;;;;4997902;28;20034;-82
2022/03/25 11:11:49;;;;;;;39.15;20.40;;;;;;;;;;4984523;28;20124;-82
2022/03/25 11:14:16;;;;;;;40.90;21.08;;;;;;;;;;4980993;28;20034;-82
2022/03/25 11:16:46;;;;;;;36.70;19.05;;;;;;;;;;4982774;28;20040;-82
2022/03/25 11:19:12;;;;;;;38.63;19.35;;;;;;;;;;4986355;28;20022;-82
2022/03/25 11:21:43;;;;;;;36.22;20.25;;;;;;;;;;4991749;28;20041;-82
2022/03/25 11:24:24;;;;;;;47.65;20.65;;;;;;;;;;5005279;28;20030;-82
2022/03/25 11:26:58;;;;;;;53.70;21.17;;;;;;;;;;4989658;28;20046;-82
2022/03/25 11:29:26;;;;;;;42.13;20.30;;;;;;;;;;4989300;28;20061;-82
2022/03/25 11:32:03;;;;;;;50.83;21.67;;;;;;;;;;4997941;28;20026;-82
2022/03/25 11:34:29;;;;;;;34.85;18.75;;;;;;;;;;5003862;28;20746;-82
2022/03/25 11:37:18;;;;;;;38.83;19.00;;;;;;;;;;4981359;28;20665;-82
2022/03/25 11:39:44;;;;;;;32.10;17.63;;;;;;;;;;4975458;28;20121;-82
2022/03/25 11:42:29;;;;;;;32.58;16.67;;;;;;;;;;4986912;28;20029;-82
2022/03/25 11:45:14;;;;;;;28.45;16.45;;;;;;;;;;5004734;28;20501;-82
2022/03/25 11:47:40;;;;;;;36.45;16.50;;;;;;;;;;4981418;28;20614;-82
2022/03/25 11:50:26;;;;;;;36.35;16.55;;;;;;;;;;4994601;28;20079;-82
2022/03/25 11:52:52;;;;;;;27.05;15.10;;;;;;;;;;4979838;28;20205;-82
2022/03/25 11:55:18;;;;;;;34.03;16.00;;;;;;;;;;5005208;28;20129;-82
2022/03/25 11:57:44;;;;;;;29.08;14.57;;;;;;;;;;4985289;28;20038;-82
2022/03/25 12:00:22;;;;;;;29.52;13.93;;;;;;;;;;4988588;28;20037;-82
2022/03/25 12:03:02;;;;;;;25.02;13.88;;;;;;;;;;4983719;28;20497;-82
2022/03/25 12:05:34;;;;;;;31.10;14.20;;;;;;;;;;4984940;28;20414;-82
2022/03/25 12:08:19;;;;;;;27.65;13.65;;;;;;;;;;4998646;28;20042;-82
2022/03/25 12:10:45;;;;;;;27.50;13.38;;;;;;;;;;5001124;28;20488;-82
2022/03/25 12:13:11;;;;;;;28.20;13.98;;;;;;;;;;4988789;28;20486;-82
2022/03/25 12:15:42;;;;;;;24.52;12.75;;;;;;;;;;4985489;28;20034;-82
2022/03/25 12:18:26;;;;;;;23.80;12.55;;;;;;;;;;4997300;28;20034;-82
2022/03/25 12:20:52;;;;;;;29.60;11.80;;;;;;;;;;4983169;28;20038;-82
2022/03/25 12:23:18;;;;;;;17.83;10.18;;;;;;;;;;4999106;28;20084;-82
2022/03/25 12:25:51;;;;;;;22.75;10.57;;;;;;;;;;5001332;28;20026;-82
2022/03/25 12:28:24;;;;;;;18.85;11.43;;;;;;;;;;4977975;28;20161;-81
2022/03/25 12:30:52;;;;;;;22.55;11.75;;;;;;;;;;4978660;28;20105;-81
2022/03/25 12:33:19;;;;;;;20.85;11.88;;;;;;;;;;4977862;28;20031;-81
2022/03/25 12:35:45;;;;;;;24.63;11.98;;;;;;;;;;4977952;28;20057;-81
2022/03/25 12:38:24;;;;;;;29.50;16.23;;;;;;;;;;4976993;28;20045;-83
2022/03/25 12:40:51;;;;;;;27.17;16.40;;;;;;;;;;4967068;28;20050;-84
2022/03/25 12:43:17;;;;;;;33.20;18.58;;;;;;;;;;4981347;28;20022;-85
2022/03/25 12:45:50;;;;;;;29.00;17.65;;;;;;;;;;4966206;28;20022;-85
2022/03/25 12:48:23;;;;;;;36.47;18.50;;;;;;;;;;4963869;28;20129;-85
2022/03/25 12:50:50;;;;;;;28.67;15.98;;;;;;;;;;4969061;28;20054;-84
2022/03/25 12:53:17;;;;;;;30.52;17.30;;;;;;;;;;4980587;28;20038;-83
2022/03/25 12:55:43;;;;;;;36.35;19.15;;;;;;;;;;4976109;28;20026;-84
2022/03/25 12:58:10;;;;;;;35.35;19.13;;;;;;;;;;4960948;28;20112;-86
2022/03/25 13:00:44;;;;;;;39.63;20.30;;;;;;;;;;4968509;28;20597;-84
2022/03/25 13:03:11;;;;;;;38.05;19.63;;;;;;;;;;4979026;28;20034;-85
2022/03/25 13:05:37;;;;;;;35.83;18.83;;;;;;;;;;4964567;28;20031;-84
2022/03/25 13:08:05;;;;;;;29.58;16.63;;;;;;;;;;4982996;28;20041;-85
2022/03/25 13:10:31;;;;;;;28.55;15.32;;;;;;;;;;4982169;28;20034;-84
2022/03/25 13:12:59;;;;;;;31.92;16.23;;;;;;;;;;4967180;28;20057;-84
2022/03/25 13:15:32;;;;;;;39.42;16.02;;;;;;;;;;4968920;28;20031;-84
2022/03/25 13:17:59;;;;;;;25.85;15.02;;;;;;;;;;4979156;28;20062;-84
2022/03/25 13:20:27;;;;;;;27.95;15.52;;;;;;;;;;4969373;28;20117;-84
2022/03/25 13:22:58;;;;;;;31.05;15.13;;;;;;;;;;4969247;28;20041;-84
2022/03/25 13:25:44;;;;;;;25.58;11.98;;;;;;;;;;4965369;28;20331;-84
2022/03/25 13:28:29;;;;;;;26.05;12.10;;;;;;;;;;4983416;28;20034;-84
2022/03/25 13:30:57;;;;;;;20.92;11.15;;;;;;;;;;4983693;28;20031;-84
2022/03/25 13:33:23;;;;;;;21.73;12.05;;;;;;;;;;4986353;28;20037;-84
2022/03/25 13:35:50;;;;;;;28.13;13.65;;;;;;;;;;5000896;28;20057;-83
2022/03/25 13:38:26;;;;;;;29.15;14.52;;;;;;;;;;4983422;28;20045;-83
2022/03/25 13:40:54;;;;;;;29.58;12.40;;;;;;;;;;5003894;28;20398;-85
2022/03/25 13:43:23;;;;;;;19.25;10.50;;;;;;;;;;4988924;28;20125;-84
2022/03/25 13:46:01;;;;;;;26.30;11.82;;;;;;;;;;4986746;28;20034;-84
2022/03/25 13:48:43;;;;;;;31.10;13.70;;;;;;;;;;4996651;28;20022;-85
2022/03/25 13:51:21;;;;;;;24.27;11.82;;;;;;;;;;5005105;28;20037;-85
2022/03/25 13:53:48;;;;;;;31.77;12.25;;;;;;;;;;4984192;28;20026;-84
2022/03/25 13:56:16;;;;;;;24.85;12.50;;;;;;;;;;4985889;28;20432;-84
2022/03/25 13:58:49;;;;;;;21.58;11.68;;;;;;;;;;5003665;28;20105;-84
2022/03/25 14:01:15;;;;;;;32.25;13.45;;;;;;;;;;4998991;28;20050;-84
2022/03/25 14:03:41;;;;;;;25.95;14.20;;;;;;;;;;4981504;28;20110;-85
2022/03/25 14:06:14;;;;;;;26.25;12.85;;;;;;;;;;5003262;28;20030;-85
2022/03/25 14:08:41;;;;;;;30.08;14.60;;;;;;;;;;4983866;28;20129;-84
2022/03/25 14:11:07;;;;;;;30.80;16.73;;;;;;;;;;4987424;28;20042;-84
2022/03/25 14:13:34;;;;;;;32.30;18.67;;;;;;;;;;4987743;28;20114;-84
2022/03/25 14:16:13;;;;;;;35.42;21.27;;;;;;;;;;5008264;28;20068;-87
2022/03/25 14:18:48;;;;;;;48.95;21.85;;;;;;;;;;4987024;28;20577;-85
2022/03/25 14:21:22;;;;;;;46.55;23.00;;;;;;;;;;4980602;28;20517;-85
2022/03/25 14:23:48;;;;;;;44.07;22.67;;;;;;;;;;5000808;28;20030;-85
2022/03/25 14:26:14;;;;;;;43.35;24.70;;;;;;;;;;4999614;28;20292;-85